Time;durP1;ratioP1;P1;durP2;ratioP2;P2;SDS_P1;SDS_P2;PMS_P1;PMS_P2;Temp;Humidity;BMP_temperature;BMP_pressure;BME280_temperature;BME280_humidity;BME280_pressure;Samples;Min_cycle;Max_cycle;Signal;HPM_P1;HPM_P2
2022/03/30 00:02:44;;;;;;;;;;;19.00;30.10;;;;;;8365455;28;19924;-45
2022/03/30 00:06:45;;;;;;;;;;;18.90;30.10;;;;;;8365563;28;19917;-48
2022/03/30 00:10:45;;;;;;;;;;;18.90;30.10;;;;;;8364975;28;19971;-46
2022/03/30 00:14:47;;;;;;;;;;;18.90;30.00;;;;;;8364973;28;20332;-47
2022/03/30 00:18:47;;;;;;;;;;;18.90;30.10;;;;;;8366050;28;19913;-51
2022/03/30 00:22:47;;;;;;;;;;;18.90;30.10;;;;;;8365280;28;19928;-46
2022/03/30 00:26:48;;;;;;;;;;;18.90;30.10;;;;;;8364638;28;19927;-48
2022/03/30 00:30:49;;;;;;;;;;;18.90;30.10;;;;;;8365231;28;19924;-48
2022/03/30 00:34:49;;;;;;;;;;;18.80;30.10;;;;;;8364768;28;19925;-46
2022/03/30 00:38:50;;;;;;;;;;;18.90;30.10;;;;;;8364554;28;19962;-48
2022/03/30 00:42:50;;;;;;;;;;;18.80;30.10;;;;;;8364586;28;19983;-46
2022/03/30 00:46:51;;;;;;;;;;;18.90;30.20;;;;;;8364571;28;19917;-46
2022/03/30 00:50:51;;;;;;;;;;;18.90;30.20;;;;;;8363896;28;19917;-47
2022/03/30 00:54:52;;;;;;;;;;;18.90;30.20;;;;;;8364383;28;19925;-47
2022/03/30 00:58:52;;;;;;;;;;;18.80;30.20;;;;;;8364765;28;19913;-48
2022/03/30 01:02:53;;;;;;;;;;;18.90;30.20;;;;;;8345426;28;20279;-48
2022/03/30 01:06:53;;;;;;;;;;;18.80;30.10;;;;;;8330965;28;20350;-51
2022/03/30 01:10:54;;;;;;;;;;;18.80;30.10;;;;;;8331197;28;19943;-49
2022/03/30 01:14:54;;;;;;;;;;;18.80;30.20;;;;;;8330296;28;19929;-47
2022/03/30 01:19:05;;;;;;;;;;;18.80;30.20;;;;;;8330709;28;19920;-47
2022/03/30 01:23:06;;;;;;;;;;;18.80;30.20;;;;;;8330609;28;20485;-49
2022/03/30 01:27:06;;;;;;;;;;;18.80;30.20;;;;;;8329873;28;19920;-46
2022/03/30 01:35:26;;;;;;;;;;;18.80;30.20;;;;;;8329804;28;20027;-47
2022/03/30 01:39:27;;;;;;;;;;;18.80;30.20;;;;;;8330858;28;20370;-47
2022/03/30 01:43:28;;;;;;;;;;;18.80;30.30;;;;;;8330001;28;19917;-46
2022/03/30 01:47:28;;;;;;;;;;;18.80;30.30;;;;;;8329579;28;19921;-48
2022/03/30 01:51:29;;;;;;;;;;;18.80;30.30;;;;;;8329922;28;20293;-51
2022/03/30 01:55:29;;;;;;;;;;;18.80;30.30;;;;;;8330073;28;19933;-50
2022/03/30 01:59:30;;;;;;;;;;;18.70;30.30;;;;;;8329723;28;19921;-48
2022/03/30 02:03:30;;;;;;;;;;;18.80;30.30;;;;;;8329706;28;20070;-46
2022/03/30 02:07:31;;;;;;;;;;;18.80;30.30;;;;;;8329668;28;19917;-47
2022/03/30 02:11:32;;;;;;;;;;;18.80;30.30;;;;;;8329188;28;19918;-47
2022/03/30 02:15:32;;;;;;;;;;;18.70;30.40;;;;;;8329804;28;20293;-49
2022/03/30 02:19:33;;;;;;;;;;;18.70;30.40;;;;;;8330058;28;19913;-49
2022/03/30 02:23:34;;;;;;;;;;;18.70;30.40;;;;;;8329061;28;19932;-51
2022/03/30 02:27:35;;;;;;;;;;;18.70;30.40;;;;;;8329480;28;20431;-49
2022/03/30 02:31:35;;;;;;;;;;;18.70;30.50;;;;;;8331401;28;20000;-47
2022/03/30 02:35:36;;;;;;;;;;;18.70;30.50;;;;;;8335179;28;20004;-51
2022/03/30 02:39:36;;;;;;;;;;;18.70;30.50;;;;;;8335904;28;19917;-52
2022/03/30 02:43:37;;;;;;;;;;;18.70;30.50;;;;;;8335348;28;19921;-51
2022/03/30 02:51:57;;;;;;;;;;;18.70;30.60;;;;;;8340002;28;19924;-49
2022/03/30 02:55:58;;;;;;;;;;;18.70;30.60;;;;;;8335207;28;19925;-50
2022/03/30 02:59:58;;;;;;;;;;;18.70;30.60;;;;;;8334803;28;19913;-48
2022/03/30 03:03:59;;;;;;;;;;;18.70;30.60;;;;;;8334659;28;19964;-49
2022/03/30 03:08:02;;;;;;;;;;;18.70;30.60;;;;;;8352067;28;20003;-50
2022/03/30 03:12:03;;;;;;;;;;;18.70;30.70;;;;;;8334035;28;20376;-46
2022/03/30 03:16:05;;;;;;;;;;;18.70;30.60;;;;;;8334528;28;19925;-47
2022/03/30 03:20:05;;;;;;;;;;;18.70;30.70;;;;;;8334527;28;19960;-47
2022/03/30 03:24:06;;;;;;;;;;;18.60;30.70;;;;;;8333733;28;20008;-49
2022/03/30 03:28:08;;;;;;;;;;;18.60;30.70;;;;;;8334028;28;19924;-47
2022/03/30 03:32:08;;;;;;;;;;;18.60;30.80;;;;;;8333966;28;20033;-51
2022/03/30 03:36:09;;;;;;;;;;;18.70;30.80;;;;;;8333153;28;19925;-48
2022/03/30 03:40:09;;;;;;;;;;;18.60;30.80;;;;;;8333909;28;19920;-48
2022/03/30 03:44:10;;;;;;;;;;;18.60;30.80;;;;;;8333030;28;19924;-48
2022/03/30 03:48:10;;;;;;;;;;;18.60;30.90;;;;;;8334210;28;19917;-46
2022/03/30 03:52:11;;;;;;;;;;;18.60;31.00;;;;;;8334030;28;19917;-48
2022/03/30 03:56:11;;;;;;;;;;;18.60;31.00;;;;;;8333548;28;20278;-47
2022/03/30 04:00:12;;;;;;;;;;;18.60;31.00;;;;;;8334333;28;19992;-52
2022/03/30 04:04:13;;;;;;;;;;;18.60;31.00;;;;;;8343666;28;20308;-52
2022/03/30 04:08:15;;;;;;;;;;;18.60;31.10;;;;;;8365332;28;19947;-53
2022/03/30 04:12:15;;;;;;;;;;;18.60;31.10;;;;;;8365695;28;19979;-51
2022/03/30 04:16:16;;;;;;;;;;;18.60;31.10;;;;;;8365474;28;19928;-52
2022/03/30 04:20:16;;;;;;;;;;;18.60;31.10;;;;;;8365138;28;19984;-48
2022/03/30 04:24:17;;;;;;;;;;;18.60;31.10;;;;;;8365236;28;20423;-50
2022/03/30 04:28:17;;;;;;;;;;;18.60;31.20;;;;;;8365199;28;19917;-48
2022/03/30 04:32:18;;;;;;;;;;;18.60;31.20;;;;;;8364609;28;20289;-47
2022/03/30 04:36:19;;;;;;;;;;;18.60;31.30;;;;;;8365112;28;20042;-47
2022/03/30 04:40:20;;;;;;;;;;;18.60;31.30;;;;;;8365177;28;20019;-48
2022/03/30 04:44:21;;;;;;;;;;;18.50;31.20;;;;;;8364442;28;19917;-48
2022/03/30 04:48:22;;;;;;;;;;;18.60;31.40;;;;;;8359169;28;19921;-48
2022/03/30 04:52:23;;;;;;;;;;;18.50;31.30;;;;;;8331688;28;19951;-48
2022/03/30 04:56:24;;;;;;;;;;;18.60;31.40;;;;;;8330714;28;19925;-48
2022/03/30 05:00:24;;;;;;;;;;;18.50;31.30;;;;;;8340218;28;20012;-46
2022/03/30 05:04:25;;;;;;;;;;;18.50;31.30;;;;;;8340112;28;19944;-48
2022/03/30 05:08:25;;;;;;;;;;;18.50;31.40;;;;;;8330441;28;19917;-47
2022/03/30 05:12:26;;;;;;;;;;;18.50;31.40;;;;;;8365784;28;19917;-47
2022/03/30 05:16:27;;;;;;;;;;;18.50;31.60;;;;;;8330759;28;20393;-47
2022/03/30 05:20:28;;;;;;;;;;;18.50;31.50;;;;;;8384279;28;20318;-49
2022/03/30 05:24:28;;;;;;;;;;;18.50;31.50;;;;;;8342179;28;19921;-48
2022/03/30 05:28:29;;;;;;;;;;;18.50;31.60;;;;;;8330459;28;19963;-49
2022/03/30 05:32:30;;;;;;;;;;;18.50;31.60;;;;;;8329849;28;19971;-48
2022/03/30 05:36:30;;;;;;;;;;;18.50;31.60;;;;;;8330179;28;19921;-48
2022/03/30 05:40:30;;;;;;;;;;;18.50;31.60;;;;;;8330346;28;20325;-47
2022/03/30 05:44:31;;;;;;;;;;;18.50;31.60;;;;;;8329766;28;20384;-48
2022/03/30 05:48:32;;;;;;;;;;;18.50;31.60;;;;;;8328677;28;19917;-47
2022/03/30 05:52:32;;;;;;;;;;;18.50;31.70;;;;;;8328599;28;19917;-47
2022/03/30 06:00:52;;;;;;;;;;;18.50;31.70;;;;;;8334931;28;19940;-48
2022/03/30 06:04:53;;;;;;;;;;;18.40;31.70;;;;;;8328271;28;19917;-46
2022/03/30 06:08:54;;;;;;;;;;;18.50;31.80;;;;;;8333828;28;20329;-48
2022/03/30 06:12:55;;;;;;;;;;;18.50;32.00;;;;;;8334600;28;19917;-48
2022/03/30 06:16:56;;;;;;;;;;;18.50;31.90;;;;;;8334534;28;19936;-48
2022/03/30 06:20:56;;;;;;;;;;;18.40;31.80;;;;;;8352872;28;20350;-49
2022/03/30 06:24:58;;;;;;;;;;;18.50;31.90;;;;;;8367465;28;20253;-47
2022/03/30 06:28:59;;;;;;;;;;;18.40;31.80;;;;;;8367197;28;19913;-50
2022/03/30 06:33:00;;;;;;;;;;;18.40;31.90;;;;;;8366579;28;19928;-51
2022/03/30 06:37:00;;;;;;;;;;;18.40;31.80;;;;;;8367042;28;19971;-48
2022/03/30 06:41:00;;;;;;;;;;;18.40;32.00;;;;;;8367122;28;20028;-48
2022/03/30 06:45:01;;;;;;;;;;;18.40;31.90;;;;;;8365969;28;19927;-49
2022/03/30 06:49:02;;;;;;;;;;;18.40;32.00;;;;;;8366886;28;20429;-49
2022/03/30 06:53:05;;;;;;;;;;;18.40;32.10;;;;;;8366386;28;19919;-47
2022/03/30 06:57:05;;;;;;;;;;;18.40;32.00;;;;;;8366143;28;19936;-47
2022/03/30 07:01:06;;;;;;;;;;;18.40;32.10;;;;;;8367770;28;19933;-47
2022/03/30 07:05:07;;;;;;;;;;;18.40;32.10;;;;;;8365971;28;19917;-48
2022/03/30 07:13:26;;;;;;;;;;;18.40;32.20;;;;;;8332984;28;20369;-48
2022/03/30 07:17:27;;;;;;;;;;;18.40;32.20;;;;;;8331534;28;19926;-48
2022/03/30 07:21:27;;;;;;;;;;;18.40;32.20;;;;;;8332606;28;19913;-47
2022/03/30 07:25:28;;;;;;;;;;;18.40;32.30;;;;;;8332392;28;19921;-47
2022/03/30 07:29:29;;;;;;;;;;;18.40;32.20;;;;;;8332275;28;19917;-48
2022/03/30 07:33:32;;;;;;;;;;;18.40;32.30;;;;;;8334105;28;19972;-47
2022/03/30 07:37:32;;;;;;;;;;;18.40;32.20;;;;;;8333758;28;20374;-48
2022/03/30 07:41:33;;;;;;;;;;;18.40;32.30;;;;;;8333232;28;19997;-48
2022/03/30 07:45:34;;;;;;;;;;;18.40;32.30;;;;;;8333462;28;20325;-49
2022/03/30 07:49:34;;;;;;;;;;;18.40;32.30;;;;;;8333599;28;20016;-50
2022/03/30 07:53:34;;;;;;;;;;;18.40;32.40;;;;;;8332741;28;19917;-48
2022/03/30 07:57:37;;;;;;;;;;;18.40;32.40;;;;;;8333472;28;19929;-52
2022/03/30 08:01:37;;;;;;;;;;;18.40;32.40;;;;;;8333067;28;19917;-54
2022/03/30 08:05:38;;;;;;;;;;;18.40;32.40;;;;;;8332277;28;19917;-50
2022/03/30 08:09:38;;;;;;;;;;;18.40;32.50;;;;;;8332630;28;19924;-53
2022/03/30 08:13:39;;;;;;;;;;;18.40;32.50;;;;;;8332531;28;19923;-48
2022/03/30 08:17:40;;;;;;;;;;;18.40;32.50;;;;;;8331915;28;20413;-49
2022/03/30 08:25:59;;;;;;;;;;;18.40;32.60;;;;;;8335564;28;19992;-47
2022/03/30 08:30:00;;;;;;;;;;;18.40;32.70;;;;;;8330655;28;19917;-47
2022/03/30 08:34:01;;;;;;;;;;;18.40;32.70;;;;;;8331889;28;19999;-49
2022/03/30 08:38:02;;;;;;;;;;;18.40;32.80;;;;;;8331698;28;20347;-50
2022/03/30 08:42:04;;;;;;;;;;;18.40;32.80;;;;;;8331657;28;19963;-49
2022/03/30 08:46:04;;;;;;;;;;;18.40;32.80;;;;;;8331856;28;19917;-48
2022/03/30 08:50:05;;;;;;;;;;;18.40;32.90;;;;;;8331532;28;20027;-51
2022/03/30 08:54:09;;;;;;;;;;;18.40;32.80;;;;;;8331056;28;19932;-50
2022/03/30 08:58:09;;;;;;;;;;;18.40;32.80;;;;;;8331030;28;19971;-52
2022/03/30 09:02:10;;;;;;;;;;;18.40;32.90;;;;;;8331483;28;20379;-49
2022/03/30 09:06:12;;;;;;;;;;;18.40;32.90;;;;;;8330694;28;19917;-51
2022/03/30 09:10:14;;;;;;;;;;;18.40;32.90;;;;;;8331017;28;20028;-52
2022/03/30 09:14:14;;;;;;;;;;;18.40;33.00;;;;;;8330594;28;19917;-48
2022/03/30 09:18:15;;;;;;;;;;;18.40;32.80;;;;;;8331151;28;19960;-52
2022/03/30 09:22:16;;;;;;;;;;;18.40;32.90;;;;;;8330910;28;19913;-47
2022/03/30 09:26:16;;;;;;;;;;;18.40;33.00;;;;;;8330045;28;19922;-48
2022/03/30 09:30:17;;;;;;;;;;;18.40;33.00;;;;;;8330570;28;19921;-50
2022/03/30 09:34:19;;;;;;;;;;;18.40;33.00;;;;;;8330418;28;19925;-48
2022/03/30 09:38:20;;;;;;;;;;;18.40;33.00;;;;;;8329382;28;19929;-50
2022/03/30 09:42:22;;;;;;;;;;;18.40;33.10;;;;;;8330206;28;20047;-50
2022/03/30 09:46:22;;;;;;;;;;;18.40;33.10;;;;;;8329894;28;19917;-52
2022/03/30 09:50:27;;;;;;;;;;;18.40;33.10;;;;;;8329339;28;19940;-47
2022/03/30 09:54:44;;;;;;;;;;;18.40;33.10;;;;;;8330295;28;19917;-51
2022/03/30 09:58:45;;;;;;;;;;;18.40;33.10;;;;;;8329834;28;20306;-48
2022/03/30 10:02:47;;;;;;;;;;;18.40;33.20;;;;;;8328818;28;20332;-52
2022/03/30 10:06:47;;;;;;;;;;;18.40;33.20;;;;;;8329862;28;20000;-48
2022/03/30 10:10:48;;;;;;;;;;;18.40;33.20;;;;;;8329591;28;19917;-52
2022/03/30 10:14:48;;;;;;;;;;;18.40;33.20;;;;;;8328932;28;19921;-49
2022/03/30 10:18:51;;;;;;;;;;;18.40;33.20;;;;;;8329538;28;19940;-49
2022/03/30 10:23:10;;;;;;;;;;;18.40;33.20;;;;;;8329811;28;19913;-51
2022/03/30 10:27:12;;;;;;;;;;;18.40;33.20;;;;;;8362442;28;19963;-50
2022/03/30 10:31:13;;;;;;;;;;;18.40;33.20;;;;;;8344364;28;19916;-51
2022/03/30 10:35:13;;;;;;;;;;;18.40;33.30;;;;;;8361839;28;19921;-49
2022/03/30 10:39:16;;;;;;;;;;;18.40;33.30;;;;;;8362292;28;19917;-50
2022/03/30 10:43:24;;;;;;;;;;;18.40;33.30;;;;;;8362305;28;19913;-48
2022/03/30 10:47:26;;;;;;;;;;;18.40;33.70;;;;;;8361695;28;19931;-50
2022/03/30 10:51:27;;;;;;;;;;;18.50;33.40;;;;;;8362154;28;19917;-48
2022/03/30 10:55:30;;;;;;;;;;;18.50;33.40;;;;;;8367870;28;20401;-49
2022/03/30 10:59:30;;;;;;;;;;;18.50;33.30;;;;;;8367462;28;20018;-50
2022/03/30 11:03:50;;;;;;;;;;;18.50;33.30;;;;;;8367651;28;20011;-48
2022/03/30 11:07:51;;;;;;;;;;;18.50;33.40;;;;;;8367739;28;20377;-49
2022/03/30 11:11:56;;;;;;;;;;;18.50;33.30;;;;;;8367072;28;20016;-52
2022/03/30 11:15:59;;;;;;;;;;;18.50;33.30;;;;;;8367249;28;20413;-48
2022/03/30 11:19:59;;;;;;;;;;;18.50;33.40;;;;;;8367241;28;19917;-52
2022/03/30 11:24:03;;;;;;;;;;;18.50;33.40;;;;;;8366812;28;19940;-51
2022/03/30 11:28:03;;;;;;;;;;;18.50;33.30;;;;;;8367161;28;20261;-47
2022/03/30 11:32:19;;;;;;;;;;;18.50;33.40;;;;;;8366874;28;19924;-52
2022/03/30 11:36:19;;;;;;;;;;;18.50;33.40;;;;;;8366367;28;19925;-46
2022/03/30 11:40:20;;;;;;;;;;;18.50;33.30;;;;;;8366656;28;20332;-48
2022/03/30 11:48:42;;;;;;;;;;;18.60;33.50;;;;;;8367038;28;20003;-49
2022/03/30 11:52:52;;;;;;;;;;;18.60;33.40;;;;;;8366478;28;19917;-54
2022/03/30 11:56:52;;;;;;;;;;;18.60;33.40;;;;;;8365498;28;19960;-48
2022/03/30 12:00:56;;;;;;;;;;;18.60;33.40;;;;;;8366081;28;20381;-52
2022/03/30 12:04:57;;;;;;;;;;;18.60;33.40;;;;;;8364953;28;19913;-47
2022/03/30 12:08:58;;;;;;;;;;;18.70;33.50;;;;;;8365370;28;19917;-48
2022/03/30 12:12:59;;;;;;;;;;;18.60;33.40;;;;;;8366039;28;20014;-49
2022/03/30 12:17:01;;;;;;;;;;;18.60;33.40;;;;;;8365474;28;20284;-47
2022/03/30 12:21:02;;;;;;;;;;;18.70;33.40;;;;;;8364814;28;19924;-50
2022/03/30 12:25:14;;;;;;;;;;;18.60;33.40;;;;;;8365574;28;19970;-51
2022/03/30 12:29:15;;;;;;;;;;;18.70;33.50;;;;;;8364889;28;19920;-51
2022/03/30 12:33:16;;;;;;;;;;;18.70;33.40;;;;;;8365438;28;19923;-47
2022/03/30 12:37:22;;;;;;;;;;;18.70;33.50;;;;;;8364635;28;20408;-50
2022/03/30 12:41:25;;;;;;;;;;;18.70;33.40;;;;;;8364328;28;20366;-50
2022/03/30 12:45:26;;;;;;;;;;;18.70;33.50;;;;;;8364571;28;20314;-50
2022/03/30 12:49:39;;;;;;;;;;;18.70;33.40;;;;;;8364805;28;19913;-49
2022/03/30 12:53:45;;;;;;;;;;;18.70;33.30;;;;;;8364218;28;19917;-48
2022/03/30 12:57:56;;;;;;;;;;;18.70;33.40;;;;;;8364123;28;20353;-47
2022/03/30 13:01:58;;;;;;;;;;;18.70;33.30;;;;;;8364282;28;19952;-49
2022/03/30 13:06:08;;;;;;;;;;;18.70;33.30;;;;;;8363514;28;19917;-48
2022/03/30 13:10:10;;;;;;;;;;;18.80;33.90;;;;;;8362673;28;20700;-50
2022/03/30 13:14:11;;;;;;;;;;;18.80;33.30;;;;;;8363387;28;19916;-52
2022/03/30 13:18:18;;;;;;;;;;;18.70;33.30;;;;;;8363481;28;19943;-52
2022/03/30 13:22:21;;;;;;;;;;;18.70;33.20;;;;;;8363604;28;19958;-52
2022/03/30 13:26:33;;;;;;;;;;;18.80;33.20;;;;;;8362843;28;19913;-47
2022/03/30 13:30:34;;;;;;;;;;;18.80;33.30;;;;;;8363288;28;20004;-52
2022/03/30 13:34:35;;;;;;;;;;;18.80;33.20;;;;;;8363302;28;19916;-49
2022/03/30 13:38:35;;;;;;;;;;;18.70;33.80;;;;;;8362933;28;19952;-50
2022/03/30 13:42:36;;;;;;;;;;;18.70;33.30;;;;;;8363133;28;19963;-51
2022/03/30 13:46:36;;;;;;;;;;;18.70;33.30;;;;;;8363097;28;20358;-51
2022/03/30 13:50:37;;;;;;;;;;;18.70;33.40;;;;;;8362505;28;19916;-51
2022/03/30 13:54:37;;;;;;;;;;;18.70;33.40;;;;;;8362873;28;20054;-52
2022/03/30 13:58:38;;;;;;;;;;;18.70;33.40;;;;;;8345310;28;19925;-48
2022/03/30 14:02:38;;;;;;;;;;;18.70;33.50;;;;;;8362371;28;19924;-52
2022/03/30 14:06:39;;;;;;;;;;;18.70;33.50;;;;;;8362724;28;19978;-49
2022/03/30 14:10:40;;;;;;;;;;;18.70;33.50;;;;;;8362631;28;19917;-49
2022/03/30 14:14:40;;;;;;;;;;;18.70;33.60;;;;;;8362063;28;19920;-52
2022/03/30 14:18:41;;;;;;;;;;;18.70;33.60;;;;;;8362449;28;19924;-47
2022/03/30 14:22:43;;;;;;;;;;;18.70;33.60;;;;;;8362572;28;19917;-49
2022/03/30 14:26:44;;;;;;;;;;;18.70;33.60;;;;;;8362490;28;19917;-48
2022/03/30 14:30:44;;;;;;;;;;;18.70;33.70;;;;;;8368620;28;19924;-50
2022/03/30 14:34:47;;;;;;;;;;;18.70;33.60;;;;;;8368986;28;19948;-51
2022/03/30 14:38:48;;;;;;;;;;;18.70;33.70;;;;;;8368202;28;19925;-51
2022/03/30 14:42:49;;;;;;;;;;;18.70;33.70;;;;;;8368453;28;19920;-51
2022/03/30 14:46:49;;;;;;;;;;;18.70;33.70;;;;;;8368547;28;19974;-48
2022/03/30 14:50:50;;;;;;;;;;;18.70;33.80;;;;;;8367718;28;19924;-47
2022/03/30 14:54:50;;;;;;;;;;;18.70;33.70;;;;;;8368400;28;20366;-49
2022/03/30 14:58:51;;;;;;;;;;;18.70;33.70;;;;;;8368208;28;19925;-50
2022/03/30 15:02:53;;;;;;;;;;;18.70;33.80;;;;;;8367858;28;20015;-52
2022/03/30 15:06:54;;;;;;;;;;;18.70;33.70;;;;;;8367702;28;19939;-50
2022/03/30 15:10:54;;;;;;;;;;;18.70;33.80;;;;;;8367742;28;19956;-50
2022/03/30 15:14:56;;;;;;;;;;;18.70;33.70;;;;;;8367143;28;20259;-52
2022/03/30 15:18:56;;;;;;;;;;;18.70;33.80;;;;;;8367414;28;19925;-54
2022/03/30 15:22:58;;;;;;;;;;;18.70;33.90;;;;;;8367362;28;19923;-53
2022/03/30 15:26:59;;;;;;;;;;;18.70;33.80;;;;;;8366577;28;19917;-52
2022/03/30 15:31:00;;;;;;;;;;;18.60;33.90;;;;;;8367086;28;20294;-50
2022/03/30 15:35:02;;;;;;;;;;;18.70;34.00;;;;;;8367120;28;19959;-52
2022/03/30 15:39:02;;;;;;;;;;;18.60;34.00;;;;;;8365917;28;19942;-50
2022/03/30 15:43:02;;;;;;;;;;;18.70;34.00;;;;;;8366824;28;19916;-53
2022/03/30 15:47:04;;;;;;;;;;;18.70;34.00;;;;;;8366617;28;19916;-53
2022/03/30 15:51:05;;;;;;;;;;;18.70;34.10;;;;;;8365758;28;19924;-54
2022/03/30 15:55:07;;;;;;;;;;;18.70;34.00;;;;;;8366394;28;19999;-49
2022/03/30 15:59:08;;;;;;;;;;;18.60;34.00;;;;;;8366369;28;19939;-49
2022/03/30 16:03:08;;;;;;;;;;;18.60;34.00;;;;;;8365420;28;19917;-49
2022/03/30 16:07:09;;;;;;;;;;;18.60;34.00;;;;;;8358641;28;19988;-52
2022/03/30 16:15:28;;;;;;;;;;;18.60;34.00;;;;;;8343962;28;19970;-53
2022/03/30 16:19:29;;;;;;;;;;;18.60;34.00;;;;;;8342289;28;19917;-51
2022/03/30 16:23:29;;;;;;;;;;;18.60;34.00;;;;;;8359076;28;20366;-48
2022/03/30 16:27:30;;;;;;;;;;;18.60;34.00;;;;;;8358708;28;20277;-52
2022/03/30 16:31:35;;;;;;;;;;;18.60;34.10;;;;;;8331977;28;20017;-51
2022/03/30 16:35:37;;;;;;;;;;;18.60;34.00;;;;;;8345468;28;19925;-51
2022/03/30 16:39:37;;;;;;;;;;;18.60;34.10;;;;;;8365016;28;20344;-49
2022/03/30 16:43:39;;;;;;;;;;;18.60;34.10;;;;;;8364851;28;20046;-49
2022/03/30 16:47:39;;;;;;;;;;;18.60;34.10;;;;;;8354628;28;19920;-50
2022/03/30 16:51:41;;;;;;;;;;;18.60;34.10;;;;;;8347807;28;19959;-51
2022/03/30 16:55:42;;;;;;;;;;;18.60;34.10;;;;;;8331881;28;19965;-49
2022/03/30 16:59:42;;;;;;;;;;;18.60;34.10;;;;;;8333920;28;19924;-48
2022/03/30 17:03:43;;;;;;;;;;;18.60;34.10;;;;;;8331642;28;20400;-47
2022/03/30 17:07:44;;;;;;;;;;;18.60;34.10;;;;;;8332015;28;19995;-48
2022/03/30 17:11:44;;;;;;;;;;;18.60;34.20;;;;;;8330519;28;20382;-49
2022/03/30 17:15:45;;;;;;;;;;;18.60;34.20;;;;;;8337025;28;19970;-48
2022/03/30 17:19:47;;;;;;;;;;;18.60;34.20;;;;;;8348401;28;19988;-48
2022/03/30 17:23:47;;;;;;;;;;;18.60;34.10;;;;;;8333712;28;19917;-52
2022/03/30 17:27:48;;;;;;;;;;;18.60;34.20;;;;;;8348062;28;20007;-51
2022/03/30 17:31:48;;;;;;;;;;;18.60;34.20;;;;;;8361645;28;20002;-50
2022/03/30 17:35:49;;;;;;;;;;;18.60;34.20;;;;;;8355521;28;20341;-49
2022/03/30 17:39:49;;;;;;;;;;;18.60;34.30;;;;;;8363018;28;20301;-47
2022/03/30 17:43:50;;;;;;;;;;;18.60;34.20;;;;;;8361955;28;20436;-48
2022/03/30 17:47:50;;;;;;;;;;;18.50;34.70;;;;;;8343102;28;20054;-50
2022/03/30 17:51:51;;;;;;;;;;;18.60;34.20;;;;;;8341031;28;20089;-47
2022/03/30 17:55:52;;;;;;;;;;;18.60;34.30;;;;;;8338809;28;19925;-50
2022/03/30 17:59:52;;;;;;;;;;;18.60;34.30;;;;;;8330474;28;20381;-47
2022/03/30 18:03:53;;;;;;;;;;;18.60;34.30;;;;;;8365814;28;20270;-48
2022/03/30 18:07:53;;;;;;;;;;;18.50;34.20;;;;;;8354072;28;20269;-53
2022/03/30 18:11:54;;;;;;;;;;;18.50;34.20;;;;;;8336941;28;19924;-51
2022/03/30 18:15:56;;;;;;;;;;;18.50;34.20;;;;;;8369543;28;19950;-52
2022/03/30 18:19:56;;;;;;;;;;;18.50;34.20;;;;;;8369554;28;19920;-51
2022/03/30 18:23:57;;;;;;;;;;;18.50;34.30;;;;;;8350492;28;20011;-50
2022/03/30 18:27:59;;;;;;;;;;;18.50;34.30;;;;;;8340603;28;19964;-50
2022/03/30 18:32:00;;;;;;;;;;;18.50;34.30;;;;;;8350256;28;19921;-51
2022/03/30 18:36:00;;;;;;;;;;;18.50;34.30;;;;;;8336408;28;19932;-51
2022/03/30 18:40:00;;;;;;;;;;;18.50;34.40;;;;;;8337012;28;19928;-52
2022/03/30 18:44:01;;;;;;;;;;;18.50;34.30;;;;;;8341703;28;19913;-51
2022/03/30 18:48:02;;;;;;;;;;;18.50;34.30;;;;;;8335813;28;20385;-48
2022/03/30 18:52:04;;;;;;;;;;;18.50;34.30;;;;;;8346895;28;20263;-49
2022/03/30 18:56:05;;;;;;;;;;;18.50;34.30;;;;;;8367737;28;19932;-50
2022/03/30 19:00:07;;;;;;;;;;;18.40;34.30;;;;;;8364162;28;19917;-50
2022/03/30 19:04:07;;;;;;;;;;;18.50;34.30;;;;;;8351620;28;19917;-49
2022/03/30 19:08:09;;;;;;;;;;;18.50;34.30;;;;;;8365946;28;20054;-50
2022/03/30 19:12:09;;;;;;;;;;;18.40;34.60;;;;;;8366462;28;19952;-47
2022/03/30 19:16:10;;;;;;;;;;;18.40;34.30;;;;;;8347990;28;19932;-51
2022/03/30 19:20:10;;;;;;;;;;;18.40;34.30;;;;;;8340058;28;20011;-49
2022/03/30 19:24:12;;;;;;;;;;;18.40;34.40;;;;;;8336373;28;20361;-47
2022/03/30 19:28:12;;;;;;;;;;;18.40;34.40;;;;;;8344669;28;19918;-49
2022/03/30 19:32:13;;;;;;;;;;;18.40;34.40;;;;;;8333073;28;20297;-48
2022/03/30 19:36:13;;;;;;;;;;;18.40;34.40;;;;;;8334274;28;19921;-50
2022/03/30 19:40:13;;;;;;;;;;;18.40;34.40;;;;;;8333905;28;19951;-48
2022/03/30 19:44:14;;;;;;;;;;;18.40;34.40;;;;;;8333226;28;19917;-51
2022/03/30 19:48:15;;;;;;;;;;;18.40;34.40;;;;;;8333606;28;19924;-54
2022/03/30 19:52:16;;;;;;;;;;;18.40;34.40;;;;;;8333493;28;19913;-51
2022/03/30 19:56:17;;;;;;;;;;;18.40;34.50;;;;;;8333291;28;19933;-52
2022/03/30 20:00:18;;;;;;;;;;;18.40;34.50;;;;;;8333153;28;19917;-51
2022/03/30 20:04:19;;;;;;;;;;;18.40;35.00;;;;;;8333003;28;19921;-48
2022/03/30 20:08:20;;;;;;;;;;;18.40;34.50;;;;;;8332498;28;19917;-48
2022/03/30 20:12:20;;;;;;;;;;;18.40;34.50;;;;;;8332863;28;19999;-51
2022/03/30 20:16:20;;;;;;;;;;;18.40;34.40;;;;;;8332749;28;20378;-48
2022/03/30 20:20:23;;;;;;;;;;;18.40;34.50;;;;;;8332110;28;19917;-52
2022/03/30 20:24:23;;;;;;;;;;;18.40;34.50;;;;;;8331422;28;19917;-48
2022/03/30 20:28:24;;;;;;;;;;;18.40;34.50;;;;;;8332276;28;19940;-47
2022/03/30 20:32:24;;;;;;;;;;;18.40;34.50;;;;;;8331794;28;20370;-48
2022/03/30 20:36:25;;;;;;;;;;;18.40;34.50;;;;;;8332558;28;19929;-47
2022/03/30 20:40:26;;;;;;;;;;;18.40;34.50;;;;;;8332134;28;19917;-49
2022/03/30 20:44:26;;;;;;;;;;;18.40;34.50;;;;;;8331485;28;19921;-48
2022/03/30 20:48:27;;;;;;;;;;;18.30;35.10;;;;;;8331676;28;19918;-49
2022/03/30 20:52:28;;;;;;;;;;;18.40;34.50;;;;;;8331724;28;19920;-50
2022/03/30 20:56:28;;;;;;;;;;;18.40;34.60;;;;;;8331452;28;19979;-50
2022/03/30 21:00:29;;;;;;;;;;;18.40;34.60;;;;;;8331580;28;19917;-47
2022/03/30 21:04:29;;;;;;;;;;;18.40;34.60;;;;;;8331358;28;20354;-50
2022/03/30 21:08:30;;;;;;;;;;;18.30;34.50;;;;;;8330633;28;19932;-49
2022/03/30 21:12:30;;;;;;;;;;;18.40;34.60;;;;;;8331049;28;19913;-49
2022/03/30 21:16:31;;;;;;;;;;;18.30;34.60;;;;;;8331098;28;19921;-47
2022/03/30 21:20:31;;;;;;;;;;;18.30;34.50;;;;;;8330434;28;20338;-48
2022/03/30 21:24:32;;;;;;;;;;;18.30;35.10;;;;;;8330863;28;19949;-47
2022/03/30 21:28:32;;;;;;;;;;;18.30;34.60;;;;;;8330742;28;19917;-49
2022/03/30 21:32:33;;;;;;;;;;;18.30;34.60;;;;;;8330340;28;20042;-54
2022/03/30 21:36:34;;;;;;;;;;;18.30;34.60;;;;;;8329977;28;19948;-48
2022/03/30 21:40:34;;;;;;;;;;;18.30;34.60;;;;;;8330236;28;19968;-48
2022/03/30 21:44:35;;;;;;;;;;;18.30;34.70;;;;;;8329965;28;19917;-47
2022/03/30 21:48:35;;;;;;;;;;;18.30;34.60;;;;;;8330126;28;19917;-50
2022/03/30 21:52:36;;;;;;;;;;;18.30;34.60;;;;;;8330506;28;20393;-50
2022/03/30 21:56:37;;;;;;;;;;;18.30;34.60;;;;;;8329745;28;19925;-51
2022/03/30 22:00:41;;;;;;;;;;;18.30;34.60;;;;;;8328941;28;22262;-49
2022/03/30 22:04:41;;;;;;;;;;;18.30;34.60;;;;;;8329772;28;19913;-48
2022/03/30 22:08:42;;;;;;;;;;;18.30;34.70;;;;;;8351322;28;19917;-49
2022/03/30 22:12:42;;;;;;;;;;;18.30;34.70;;;;;;8363049;28;19994;-47
2022/03/30 22:16:43;;;;;;;;;;;18.30;34.70;;;;;;8362757;28;19929;-48
2022/03/30 22:20:44;;;;;;;;;;;18.30;34.60;;;;;;8362173;28;19916;-48
2022/03/30 22:24:44;;;;;;;;;;;18.30;34.70;;;;;;8348196;28;19923;-48
2022/03/30 22:28:45;;;;;;;;;;;18.30;34.70;;;;;;8329680;28;19921;-51
2022/03/30 22:37:05;;;;;;;;;;;18.30;34.70;;;;;;8334276;28;19932;-48
2022/03/30 22:41:05;;;;;;;;;;;18.30;34.70;;;;;;8354170;28;20278;-50
2022/03/30 22:45:06;;;;;;;;;;;18.30;34.70;;;;;;8361671;28;19921;-48
2022/03/30 22:49:07;;;;;;;;;;;18.30;35.30;;;;;;8365102;28;20370;-49
2022/03/30 22:53:08;;;;;;;;;;;18.20;34.70;;;;;;8368555;28;19913;-49
2022/03/30 22:57:08;;;;;;;;;;;18.30;34.80;;;;;;8367916;28;19948;-50
2022/03/30 23:01:09;;;;;;;;;;;18.30;34.80;;;;;;8368342;28;19972;-52
2022/03/30 23:09:28;;;;;;;;;;;18.20;34.80;;;;;;8367624;28;19951;-48
2022/03/30 23:13:29;;;;;;;;;;;18.20;34.80;;;;;;8367817;28;19913;-48
2022/03/30 23:17:29;;;;;;;;;;;18.30;34.80;;;;;;8367350;28;20389;-49
2022/03/30 23:21:30;;;;;;;;;;;18.20;34.80;;;;;;8367439;28;19941;-48
2022/03/30 23:25:30;;;;;;;;;;;18.20;34.80;;;;;;8367462;28;20328;-48
2022/03/30 23:29:31;;;;;;;;;;;18.20;34.90;;;;;;8366834;28;19916;-49
2022/03/30 23:33:33;;;;;;;;;;;18.20;34.80;;;;;;8367047;28;20007;-49
2022/03/30 23:37:33;;;;;;;;;;;18.20;34.80;;;;;;8367482;28;19924;-50
2022/03/30 23:41:34;;;;;;;;;;;18.20;35.30;;;;;;8366448;28;19952;-53
2022/03/30 23:45:36;;;;;;;;;;;18.20;34.90;;;;;;8366669;28;20302;-53
2022/03/30 23:49:37;;;;;;;;;;;18.20;34.90;;;;;;8366672;28;20008;-50
2022/03/30 23:53:37;;;;;;;;;;;18.20;34.90;;;;;;8366041;28;20369;-50
